Time;durP1;ratioP1;P1;durP2;ratioP2;P2;SDS_P1;SDS_P2;PMS_P1;PMS_P2;Temp;Humidity;BMP_temperature;BMP_pressure;BME280_temperature;BME280_humidity;BME280_pressure;Samples;Min_cycle;Max_cycle;Signal;HPM_P1;HPM_P2
2024/01/20 00:00:29;;;;;;;13.88;9.57;;;1.80;99.90;;;;;;5093686;28;20046;-71
2024/01/20 00:02:54;;;;;;;13.70;8.77;;;1.80;99.90;;;;;;5093780;28;20028;-71
2024/01/20 00:05:20;;;;;;;11.70;8.07;;;1.80;99.90;;;;;;5093440;28;20028;-71
2024/01/20 00:07:46;;;;;;;12.25;9.27;;;1.80;99.90;;;;;;5093321;28;20035;-71
2024/01/20 00:10:11;;;;;;;14.75;10.35;;;1.70;99.90;;;;;;5093851;28;20089;-71
2024/01/20 00:12:38;;;;;;;10.52;8.07;;;1.70;99.90;;;;;;5093402;28;20032;-71
2024/01/20 00:15:07;;;;;;;13.95;9.32;;;1.70;99.90;;;;;;5093348;28;20413;-71
2024/01/20 00:17:33;;;;;;;10.80;8.00;;;1.60;99.90;;;;;;5093598;28;20508;-72
2024/01/20 00:19:59;;;;;;;14.82;9.70;;;1.70;99.90;;;;;;5093165;28;20091;-71
2024/01/20 00:22:25;;;;;;;10.93;7.90;;;2.00;99.90;;;;;;5093374;28;20034;-72
2024/01/20 00:24:51;;;;;;;9.85;7.35;;;2.20;99.90;;;;;;5093466;28;20036;-72
2024/01/20 00:27:17;;;;;;;11.32;8.65;;;2.30;99.90;;;;;;5093257;28;20028;-72
2024/01/20 00:29:42;;;;;;;12.35;7.35;;;2.40;99.90;;;;;;5093457;28;20101;-72
2024/01/20 00:32:08;;;;;;;10.88;7.70;;;2.40;99.90;;;;;;5092735;28;20394;-72
2024/01/20 00:34:33;;;;;;;10.70;7.50;;;2.50;99.90;;;;;;5092875;28;20024;-71
2024/01/20 00:37:00;;;;;;;10.40;7.35;;;2.50;99.90;;;;;;5091730;28;20016;-71
2024/01/20 00:39:26;;;;;;;13.02;8.00;;;2.40;99.90;;;;;;5092806;28;20134;-71
2024/01/20 00:41:51;;;;;;;11.63;8.15;;;2.20;99.90;;;;;;5092914;28;20115;-71
2024/01/20 00:44:17;;;;;;;10.35;7.78;;;2.10;99.90;;;;;;5092939;28;20031;-71
2024/01/20 00:46:43;;;;;;;10.30;8.05;;;1.90;99.90;;;;;;5092942;28;20035;-71
2024/01/20 00:49:08;;;;;;;11.90;7.50;;;1.90;99.90;;;;;;5092648;28;20020;-71
2024/01/20 00:51:34;;;;;;;11.75;8.30;;;1.70;99.90;;;;;;5092658;28;20028;-71
2024/01/20 00:54:00;;;;;;;11.02;8.30;;;1.70;99.90;;;;;;5092656;28;20028;-72
2024/01/20 00:56:25;;;;;;;12.00;8.32;;;1.60;99.90;;;;;;5092715;28;20085;-72
2024/01/20 00:58:51;;;;;;;14.88;9.25;;;1.40;99.90;;;;;;5092730;28;20390;-72
2024/01/20 01:01:16;;;;;;;11.70;7.93;;;1.40;99.90;;;;;;5093072;28;20442;-72
2024/01/20 01:03:42;;;;;;;12.35;7.72;;;1.30;99.90;;;;;;5092428;28;20519;-72
2024/01/20 01:06:08;;;;;;;11.63;7.40;;;1.30;99.90;;;;;;5092099;28;20058;-72
2024/01/20 01:08:35;;;;;;;10.90;7.50;;;1.20;99.90;;;;;;5092454;28;20020;-72
2024/01/20 01:11:00;;;;;;;13.43;8.48;;;1.10;99.90;;;;;;5092837;28;20056;-72
2024/01/20 01:13:26;;;;;;;11.88;7.93;;;1.20;99.90;;;;;;5092546;28;20067;-72
2024/01/20 01:15:51;;;;;;;17.95;9.90;;;1.20;99.90;;;;;;5092316;28;20028;-73
2024/01/20 01:18:17;;;;;;;13.23;8.70;;;1.20;99.90;;;;;;5091764;28;20032;-73
2024/01/20 01:20:43;;;;;;;25.27;12.95;;;1.30;99.90;;;;;;5091913;28;20034;-72
2024/01/20 01:23:08;;;;;;;16.58;10.02;;;1.20;99.90;;;;;;5092113;28;20095;-73
2024/01/20 01:25:34;;;;;;;16.48;8.75;;;1.10;99.90;;;;;;5092367;28;20048;-73
2024/01/20 01:28:00;;;;;;;13.85;8.18;;;1.30;99.90;;;;;;5092225;28;20035;-73
2024/01/20 01:30:25;;;;;;;26.98;13.52;;;1.30;99.90;;;;;;5092462;28;20505;-73
2024/01/20 01:32:51;;;;;;;66.82;28.88;;;1.20;99.90;;;;;;5092147;28;20081;-73
2024/01/20 01:35:17;;;;;;;90.72;38.80;;;1.10;99.90;;;;;;5091819;28;20045;-73
2024/01/20 01:37:42;;;;;;;71.07;32.08;;;1.00;99.90;;;;;;5092502;28;20104;-73
2024/01/20 01:40:08;;;;;;;46.40;22.55;;;0.90;99.90;;;;;;5091917;28;20055;-73
2024/01/20 01:42:34;;;;;;;67.10;30.92;;;0.90;99.90;;;;;;5092132;28;20032;-73
2024/01/20 01:45:00;;;;;;;94.35;41.42;;;0.90;99.90;;;;;;5092144;28;20383;-73
2024/01/20 01:47:26;;;;;;;74.10;34.30;;;;;;;;;;5091996;28;20111;-74
2024/01/20 01:49:52;;;;;;;80.10;34.08;;;0.80;99.90;;;;;;5091985;28;20028;-74
2024/01/20 01:52:17;;;;;;;66.20;30.70;;;0.80;99.90;;;;;;5091809;28;20036;-74
2024/01/20 01:54:44;;;;;;;37.85;20.15;;;0.80;99.90;;;;;;5092023;28;20096;-74
2024/01/20 01:57:11;;;;;;;15.82;10.57;;;0.70;99.90;;;;;;5091867;28;20024;-74
2024/01/20 01:59:38;;;;;;;14.25;9.13;;;0.60;99.90;;;;;;5091905;28;20052;-74
2024/01/20 02:02:04;;;;;;;13.90;8.27;;;0.60;99.90;;;;;;5091701;28;20036;-74
2024/01/20 02:04:29;;;;;;;9.70;7.50;;;0.60;99.90;;;;;;5091110;28;20107;-74
2024/01/20 02:06:55;;;;;;;11.48;8.60;;;0.50;99.90;;;;;;5092390;28;20035;-74
2024/01/20 02:09:22;;;;;;;14.20;9.57;;;0.50;99.90;;;;;;5091859;28;20020;-75
2024/01/20 02:11:48;;;;;;;12.27;9.02;;;0.50;99.90;;;;;;5091800;28;20036;-74
2024/01/20 02:14:14;;;;;;;15.68;10.07;;;0.40;99.90;;;;;;5091592;28;20032;-75
2024/01/20 02:16:40;;;;;;;16.45;9.82;;;0.40;99.90;;;;;;5091772;28;20099;-75
2024/01/20 02:19:05;;;;;;;15.85;9.95;;;0.30;99.90;;;;;;5091804;28;20024;-74
2024/01/20 02:21:36;;;;;;;17.17;10.95;;;0.20;99.90;;;;;;5091664;28;20368;-75
2024/01/20 02:24:04;;;;;;;23.17;16.45;;;0.10;99.90;;;;;;5091744;28;20023;-75
2024/01/20 02:26:29;;;;;;;23.73;14.75;;;-0.10;99.90;;;;;;5091660;28;20020;-75
2024/01/20 02:28:55;;;;;;;19.23;12.85;;;-0.10;99.90;;;;;;5092156;28;20406;-75
2024/01/20 02:31:21;;;;;;;18.02;10.65;;;-0.10;99.90;;;;;;5095282;28;20043;-75
2024/01/20 02:33:47;;;;;;;16.90;11.18;;;-0.20;99.90;;;;;;5095329;28;20024;-75
2024/01/20 02:36:12;;;;;;;18.20;11.68;;;-0.20;99.90;;;;;;5096438;28;20421;-76
2024/01/20 02:38:38;;;;;;;24.38;14.63;;;-0.20;99.90;;;;;;5113997;28;20027;-75
2024/01/20 02:41:04;;;;;;;35.65;19.77;;;-0.30;99.90;;;;;;5115633;28;20078;-75
2024/01/20 02:43:29;;;;;;;41.92;22.35;;;-0.30;99.90;;;;;;5106726;28;20028;-76
2024/01/20 02:45:55;;;;;;;37.25;21.67;;;-0.30;99.90;;;;;;5095298;28;20478;-76
2024/01/20 02:48:20;;;;;;;34.20;20.42;;;-0.30;99.90;;;;;;5094899;28;20032;-76
2024/01/20 02:50:46;;;;;;;32.67;19.30;;;-0.40;99.90;;;;;;5095282;28;20081;-76
2024/01/20 02:53:12;;;;;;;30.00;16.50;;;-0.40;99.90;;;;;;5095827;28;20093;-77
2024/01/20 02:55:37;;;;;;;18.88;12.77;;;-0.20;99.90;;;;;;5095718;28;20024;-77
2024/01/20 02:58:03;;;;;;;18.70;11.15;;;0.20;99.90;;;;;;5095472;28;20027;-77
2024/01/20 03:00:29;;;;;;;14.05;9.48;;;0.30;99.90;;;;;;5095349;28;20493;-77
2024/01/20 03:02:55;;;;;;;14.70;9.00;;;0.40;99.90;;;;;;5094604;28;20039;-77
2024/01/20 03:05:21;;;;;;;12.85;8.82;;;0.60;99.90;;;;;;5094886;28;20032;-77
2024/01/20 03:07:46;;;;;;;13.30;9.23;;;0.60;99.90;;;;;;5095285;28;20024;-77
2024/01/20 03:10:12;;;;;;;11.57;8.18;;;0.60;99.90;;;;;;5094804;28;20051;-76
2024/01/20 03:12:39;;;;;;;13.05;9.50;;;0.50;99.90;;;;;;5094880;28;20478;-76
2024/01/20 03:15:07;;;;;;;14.48;9.93;;;0.20;99.90;;;;;;5094520;28;20031;-77
2024/01/20 03:17:32;;;;;;;13.43;8.80;;;0.00;99.90;;;;;;5094524;28;20470;-77
2024/01/20 03:19:58;;;;;;;12.32;9.20;;;-0.20;99.90;;;;;;5094561;28;20020;-77
2024/01/20 03:22:23;;;;;;;14.82;9.73;;;-0.20;99.90;;;;;;5094779;28;20020;-76
2024/01/20 03:24:49;;;;;;;12.23;8.88;;;-0.30;99.90;;;;;;5094578;28;20054;-76
2024/01/20 03:27:17;;;;;;;14.70;9.82;;;-0.30;99.90;;;;;;5094522;28;20028;-76
2024/01/20 03:29:43;;;;;;;13.38;10.32;;;-0.50;99.90;;;;;;5094466;28;20027;-76
2024/01/20 03:32:08;;;;;;;15.82;11.70;;;-0.50;99.90;;;;;;5094533;28;20048;-76
2024/01/20 03:34:34;;;;;;;18.13;12.85;;;-0.50;99.90;;;;;;5094321;28;20024;-76
2024/01/20 03:37:00;;;;;;;21.60;14.48;;;-0.40;99.90;;;;;;5094364;28;20020;-76
2024/01/20 03:39:25;;;;;;;20.77;14.25;;;-0.50;99.90;;;;;;5094003;28;20356;-76
2024/01/20 03:41:51;;;;;;;21.83;15.73;;;-0.50;99.90;;;;;;5093908;28;20475;-77
2024/01/20 03:44:17;;;;;;;24.92;17.23;;;-0.60;99.90;;;;;;5094572;28;20028;-76
2024/01/20 03:46:42;;;;;;;24.85;17.98;;;-0.60;99.90;;;;;;5093780;28;20024;-76
2024/01/20 03:49:08;;;;;;;26.77;19.13;;;-0.70;99.90;;;;;;5093831;28;20035;-76
2024/01/20 03:51:34;;;;;;;31.42;18.77;;;-0.70;99.90;;;;;;5094070;28;20135;-76
2024/01/20 03:54:01;;;;;;;29.77;19.50;;;-0.80;99.90;;;;;;5094230;28;20020;-76
2024/01/20 03:56:27;;;;;;;25.55;18.60;;;-0.90;99.90;;;;;;5093883;28;20031;-75
2024/01/20 03:58:53;;;;;;;29.98;18.17;;;-0.90;99.90;;;;;;5093916;28;20024;-75
2024/01/20 04:01:18;;;;;;;34.85;20.45;;;-0.90;99.90;;;;;;5093795;28;20486;-75
2024/01/20 04:03:44;;;;;;;29.58;17.60;;;-0.80;99.90;;;;;;5093658;28;20065;-75
2024/01/20 04:06:09;;;;;;;26.25;17.20;;;-0.80;99.90;;;;;;5093677;28;20024;-75
2024/01/20 04:08:35;;;;;;;25.27;16.80;;;-0.80;99.90;;;;;;5093513;28;20085;-75
2024/01/20 04:11:01;;;;;;;27.23;16.60;;;-0.90;99.90;;;;;;5093661;28;20032;-76
2024/01/20 04:13:26;;;;;;;25.98;16.50;;;-0.90;99.90;;;;;;5093780;28;20096;-75
2024/01/20 04:15:53;;;;;;;27.80;17.70;;;-0.90;99.90;;;;;;5092868;28;20578;-75
2024/01/20 04:18:19;;;;;;;29.00;18.45;;;-1.00;99.90;;;;;;5093697;28;20074;-75
2024/01/20 04:20:45;;;;;;;26.80;17.10;;;-1.00;99.90;;;;;;5093457;28;20167;-75
2024/01/20 04:23:10;;;;;;;30.08;17.98;;;-1.00;99.90;;;;;;5093386;28;20024;-75
2024/01/20 04:25:36;;;;;;;45.30;25.98;;;-1.00;99.90;;;;;;5093271;28;20024;-75
2024/01/20 04:28:02;;;;;;;42.03;23.67;;;-1.00;99.90;;;;;;5093103;28;20090;-75
2024/01/20 04:30:27;;;;;;;42.22;23.70;;;-1.10;99.90;;;;;;5093325;28;20100;-75
2024/01/20 04:32:53;;;;;;;30.67;20.90;;;-1.20;99.90;;;;;;5093382;28;20394;-75
2024/01/20 04:35:18;;;;;;;34.75;21.90;;;-1.20;99.90;;;;;;5093235;28;20070;-74
2024/01/20 04:37:44;;;;;;;29.10;19.55;;;-1.20;99.90;;;;;;5093208;28;20111;-75
2024/01/20 04:40:10;;;;;;;30.90;20.42;;;-1.30;99.90;;;;;;5093142;28;20040;-75
2024/01/20 04:42:36;;;;;;;31.38;19.52;;;-1.30;99.90;;;;;;5093031;28;20424;-75
2024/01/20 04:45:04;;;;;;;29.00;18.60;;;-1.40;99.90;;;;;;5092659;28;20381;-75
2024/01/20 04:47:30;;;;;;;28.13;19.17;;;-1.40;99.90;;;;;;5093055;28;20028;-75
2024/01/20 04:49:56;;;;;;;26.00;19.40;;;-1.40;99.90;;;;;;5093142;28;20066;-75
2024/01/20 04:52:21;;;;;;;26.40;18.90;;;-1.30;99.90;;;;;;5091964;28;20040;-75
2024/01/20 04:54:47;;;;;;;25.23;17.98;;;-1.30;99.90;;;;;;5091573;28;20374;-75
2024/01/20 04:57:13;;;;;;;25.80;17.80;;;-1.40;99.90;;;;;;5092840;28;20020;-75
2024/01/20 04:59:39;;;;;;;25.58;17.38;;;-1.50;99.90;;;;;;5092992;28;20076;-75
2024/01/20 05:02:05;;;;;;;25.23;16.48;;;-1.50;99.90;;;;;;5092719;28;20108;-75
2024/01/20 05:04:30;;;;;;;22.15;16.77;;;-1.50;99.90;;;;;;5092888;28;20028;-75
2024/01/20 05:06:56;;;;;;;21.77;17.23;;;-1.60;99.90;;;;;;5092718;28;20028;-75
2024/01/20 05:09:21;;;;;;;26.73;17.35;;;-1.60;99.90;;;;;;5092564;28;20039;-74
2024/01/20 05:11:47;;;;;;;23.38;17.17;;;-1.50;99.90;;;;;;5092365;28;20028;-75
2024/01/20 05:14:13;;;;;;;23.52;17.35;;;-1.60;99.90;;;;;;5092334;28;20024;-75
2024/01/20 05:16:38;;;;;;;26.33;18.15;;;-1.70;99.90;;;;;;5090882;28;20490;-75
2024/01/20 05:19:04;;;;;;;28.13;18.67;;;-1.70;99.90;;;;;;5092359;28;20475;-75
2024/01/20 05:21:30;;;;;;;26.65;18.02;;;-1.70;99.90;;;;;;5092610;28;20036;-75
2024/01/20 05:23:57;;;;;;;27.67;18.58;;;-1.70;99.90;;;;;;5092286;28;20516;-75
2024/01/20 05:26:23;;;;;;;25.15;17.95;;;-1.70;99.90;;;;;;5092169;28;20486;-74
2024/01/20 05:28:48;;;;;;;28.48;18.52;;;-1.70;99.90;;;;;;5092140;28;20077;-75
2024/01/20 05:31:14;;;;;;;25.45;18.08;;;-1.70;99.90;;;;;;5092085;28;20030;-75
2024/01/20 05:33:40;;;;;;;27.48;18.30;;;-1.70;99.90;;;;;;5092753;28;20035;-75
2024/01/20 05:36:06;;;;;;;24.40;17.80;;;-1.80;99.90;;;;;;5092091;28;20057;-74
2024/01/20 05:38:31;;;;;;;28.48;18.80;;;-1.80;99.90;;;;;;5092022;28;20043;-75
2024/01/20 05:40:57;;;;;;;29.30;18.15;;;-1.80;99.90;;;;;;5091998;28;20052;-75
2024/01/20 05:43:23;;;;;;;25.48;17.65;;;-1.80;99.90;;;;;;5091897;28;20376;-75
2024/01/20 05:45:48;;;;;;;28.58;18.58;;;-1.80;99.90;;;;;;5092438;28;20024;-75
2024/01/20 05:48:14;;;;;;;26.98;17.42;;;-1.60;99.90;;;;;;5091880;28;20028;-75
2024/01/20 05:50:40;;;;;;;33.05;19.20;;;-1.40;99.90;;;;;;5092196;28;20034;-75
2024/01/20 05:53:05;;;;;;;27.70;18.17;;;-1.10;99.90;;;;;;5091481;28;20028;-75
2024/01/20 05:55:31;;;;;;;28.25;18.27;;;-1.00;99.90;;;;;;5091900;28;20043;-75
2024/01/20 05:57:56;;;;;;;28.65;18.05;;;-1.00;99.90;;;;;;5091692;28;20075;-75
2024/01/20 06:00:23;;;;;;;26.48;16.77;;;-0.90;99.90;;;;;;5092038;28;20028;-75
2024/01/20 06:02:48;;;;;;;28.25;17.60;;;-1.00;99.90;;;;;;5092286;28;20383;-74
2024/01/20 06:05:14;;;;;;;27.33;17.67;;;-1.20;99.90;;;;;;5096909;28;20074;-74
2024/01/20 06:07:40;;;;;;;28.13;18.17;;;-1.30;99.90;;;;;;5096077;28;20032;-74
2024/01/20 06:10:06;;;;;;;29.95;19.83;;;-1.50;99.90;;;;;;5096311;28;20027;-74
2024/01/20 06:12:31;;;;;;;33.00;22.58;;;-1.60;99.90;;;;;;5096437;28;20027;-75
2024/01/20 06:14:57;;;;;;;39.50;24.70;;;-1.60;99.90;;;;;;5115887;28;20020;-75
2024/01/20 06:17:23;;;;;;;43.17;24.77;;;-1.70;99.90;;;;;;5116486;28;20495;-74
2024/01/20 06:19:48;;;;;;;39.50;24.63;;;-1.70;99.90;;;;;;5112491;28;20020;-74
2024/01/20 06:22:14;;;;;;;36.72;24.27;;;-1.80;99.90;;;;;;5095744;28;20508;-74
2024/01/20 06:24:40;;;;;;;39.10;25.30;;;-1.80;99.90;;;;;;5095863;28;20027;-74
2024/01/20 06:27:05;;;;;;;39.88;25.10;;;-1.80;99.90;;;;;;5095604;28;20039;-74
2024/01/20 06:29:31;;;;;;;40.70;25.70;;;-1.80;99.90;;;;;;5096157;28;20020;-75
2024/01/20 06:31:57;;;;;;;38.97;26.38;;;-1.90;99.90;;;;;;5095493;28;20051;-75
2024/01/20 06:34:22;;;;;;;39.65;25.13;;;-1.90;99.90;;;;;;5095638;28;20081;-74
2024/01/20 06:36:48;;;;;;;40.53;25.50;;;-1.90;99.90;;;;;;5095234;28;20093;-74
2024/01/20 06:39:14;;;;;;;40.90;26.55;;;-2.00;99.90;;;;;;5095037;28;20507;-74
2024/01/20 06:41:41;;;;;;;41.05;26.58;;;-2.10;99.90;;;;;;5095508;28;20391;-74
2024/01/20 06:44:06;;;;;;;37.75;24.83;;;-2.10;99.90;;;;;;5128222;27;20020;-74
2024/01/20 06:46:32;;;;;;;43.78;25.95;;;-2.10;99.90;;;;;;5095229;28;20028;-74
2024/01/20 06:48:58;;;;;;;42.35;26.77;;;-2.10;99.90;;;;;;5095198;28;20104;-74
2024/01/20 06:51:26;;;;;;;41.90;26.75;;;-2.20;99.90;;;;;;5094968;28;20043;-74
2024/01/20 06:53:57;;;;;;;45.65;27.33;;;-2.20;99.90;;;;;;5094738;28;20028;-75
2024/01/20 06:56:24;;;;;;;45.00;26.67;;;-2.30;99.90;;;;;;5095152;28;20551;-75
2024/01/20 06:58:59;;;;;;;45.40;28.85;;;-2.30;99.90;;;;;;5095529;28;20024;-75
2024/01/20 07:01:25;;;;;;;45.97;27.85;;;-2.20;99.90;;;;;;5095285;28;20024;-74
2024/01/20 07:03:50;;;;;;;45.28;26.67;;;-2.20;99.90;;;;;;5095479;28;20043;-75
2024/01/20 07:06:16;;;;;;;46.05;26.40;;;-2.10;99.90;;;;;;5095962;28;20020;-75
2024/01/20 07:08:42;;;;;;;54.83;32.30;;;-2.10;99.90;;;;;;5094644;28;20146;-75
2024/01/20 07:11:10;;;;;;;63.03;40.72;;;-2.10;99.90;;;;;;5094867;28;20028;-74
2024/01/20 07:13:37;;;;;;;65.45;40.50;;;-2.10;99.90;;;;;;5094905;28;20501;-75
2024/01/20 07:16:13;;;;;;;51.25;33.30;;;-2.10;99.90;;;;;;5094199;28;20034;-75
2024/01/20 07:18:39;;;;;;;46.22;28.63;;;-2.10;99.90;;;;;;5094626;28;20390;-74
2024/01/20 07:21:06;;;;;;;39.00;26.00;;;-2.20;99.90;;;;;;5094701;28;20036;-75
2024/01/20 07:23:31;;;;;;;38.78;26.33;;;-2.20;99.90;;;;;;5094689;28;20024;-75
2024/01/20 07:25:58;;;;;;;38.75;24.77;;;-2.20;99.90;;;;;;5094564;28;20509;-75
2024/01/20 07:28:24;;;;;;;40.17;25.88;;;-2.10;99.90;;;;;;5094419;28;20031;-75
2024/01/20 07:30:50;;;;;;;42.00;26.08;;;-2.20;99.90;;;;;;5094548;28;20032;-75
2024/01/20 07:33:16;;;;;;;49.97;32.03;;;-2.20;99.90;;;;;;5095003;28;20481;-74
2024/01/20 07:35:41;;;;;;;67.05;42.90;;;-2.20;99.90;;;;;;5094137;28;20020;-74
2024/01/20 07:38:07;;;;;;;68.43;44.28;;;-2.30;99.90;;;;;;5083697;28;20039;-75
2024/01/20 07:40:32;;;;;;;56.40;35.22;;;-2.30;99.90;;;;;;5073843;28;20049;-75
2024/01/20 07:42:58;;;;;;;47.75;31.33;;;-2.20;99.90;;;;;;5074081;28;20425;-75
2024/01/20 07:45:26;;;;;;;48.20;28.65;;;-2.20;99.90;;;;;;5076432;28;20103;-74
2024/01/20 07:47:52;;;;;;;45.28;28.05;;;-2.20;99.90;;;;;;5094052;28;20020;-75
2024/01/20 07:50:18;;;;;;;43.03;26.35;;;-2.20;99.90;;;;;;5093527;28;20024;-74
2024/01/20 07:52:43;;;;;;;35.72;24.30;;;-2.20;99.90;;;;;;5093760;28;20544;-74
2024/01/20 07:55:09;;;;;;;36.58;23.83;;;-2.20;99.90;;;;;;5094299;28;20103;-74
2024/01/20 07:57:35;;;;;;;38.75;24.45;;;-2.20;99.90;;;;;;5093988;28;20090;-74
2024/01/20 08:00:01;;;;;;;37.35;24.55;;;-2.10;99.90;;;;;;5092511;28;20032;-73
2024/01/20 08:02:27;;;;;;;37.65;24.10;;;-2.20;99.90;;;;;;5094212;28;20031;-75
2024/01/20 08:04:53;;;;;;;39.03;25.00;;;-2.10;99.90;;;;;;5093952;28;20035;-74
2024/01/20 08:07:18;;;;;;;39.42;24.85;;;-2.10;99.90;;;;;;5093195;28;20023;-76
2024/01/20 08:09:45;;;;;;;37.50;24.85;;;-2.10;99.90;;;;;;5092253;28;20028;-76
2024/01/20 08:12:10;;;;;;;40.20;27.55;;;-2.10;99.90;;;;;;5080956;28;20515;-76
2024/01/20 08:14:36;;;;;;;42.80;27.90;;;-2.00;99.90;;;;;;5093621;28;20158;-76
2024/01/20 08:17:01;;;;;;;44.20;30.05;;;-2.00;99.90;;;;;;5093937;28;20371;-76
2024/01/20 08:19:27;;;;;;;46.47;31.73;;;-2.00;99.90;;;;;;5093215;28;20046;-76
2024/01/20 08:21:53;;;;;;;44.67;30.42;;;-1.90;99.90;;;;;;5092637;28;20481;-76
2024/01/20 08:24:18;;;;;;;51.85;32.05;;;-1.80;99.90;;;;;;5093439;28;20020;-76
2024/01/20 08:26:45;;;;;;;47.03;30.77;;;-1.80;99.90;;;;;;5093479;28;20039;-76
2024/01/20 08:29:11;;;;;;;48.13;32.40;;;-1.70;99.90;;;;;;5085836;28;20430;-76
2024/01/20 08:31:37;;;;;;;41.75;27.63;;;-1.60;99.90;;;;;;5085357;28;20042;-76
2024/01/20 08:34:02;;;;;;;34.05;24.17;;;-1.60;99.90;;;;;;5094531;28;20477;-77
2024/01/20 08:36:28;;;;;;;28.67;20.92;;;-1.50;99.90;;;;;;5108643;28;20026;-76
2024/01/20 08:38:54;;;;;;;24.60;18.42;;;-1.50;99.90;;;;;;5092997;28;20024;-76
2024/01/20 08:41:19;;;;;;;22.90;16.33;;;-1.40;99.90;;;;;;5085134;28;20048;-75
2024/01/20 08:43:47;;;;;;;24.25;16.60;;;-1.50;99.90;;;;;;5084690;28;20430;-76
2024/01/20 08:46:13;;;;;;;27.38;17.98;;;-1.40;99.90;;;;;;5083268;28;20036;-75
2024/01/20 08:48:39;;;;;;;28.08;20.13;;;-1.30;99.90;;;;;;5092429;28;20028;-75
2024/01/20 08:51:04;;;;;;;27.25;20.48;;;-1.30;99.90;;;;;;5092597;28;20068;-76
2024/01/20 08:53:32;;;;;;;26.70;18.27;;;-1.20;99.90;;;;;;5084077;28;20486;-77
2024/01/20 08:55:58;;;;;;;23.77;17.35;;;-0.90;99.90;;;;;;5082723;28;20371;-75
2024/01/20 08:58:24;;;;;;;23.33;16.23;;;-0.60;99.90;;;;;;5075607;28;20032;-76
2024/01/20 09:00:50;;;;;;;19.45;15.02;;;-0.50;99.90;;;;;;5088666;28;20027;-75
2024/01/20 09:03:16;;;;;;;18.48;14.63;;;-0.30;99.90;;;;;;5082465;28;20024;-76
2024/01/20 09:05:42;;;;;;;20.50;14.00;;;-0.10;99.90;;;;;;5080865;28;20058;-75
2024/01/20 09:08:09;;;;;;;22.67;15.85;;;-0.10;99.90;;;;;;5072239;28;20394;-76
2024/01/20 09:10:36;;;;;;;25.83;18.08;;;-0.10;99.90;;;;;;5072661;28;20104;-75
2024/01/20 09:13:02;;;;;;;29.00;18.63;;;-0.30;99.90;;;;;;5080692;28;20103;-75
2024/01/20 09:15:28;;;;;;;27.67;20.50;;;-0.30;99.90;;;;;;5081192;28;20355;-76
2024/01/20 09:17:54;;;;;;;28.67;21.08;;;-0.40;99.90;;;;;;5071843;28;20025;-76
2024/01/20 09:20:20;;;;;;;25.17;18.92;;;-0.50;99.90;;;;;;5072107;28;20023;-75
2024/01/20 09:22:46;;;;;;;24.52;17.52;;;-0.40;99.90;;;;;;5085594;28;20051;-75
2024/01/20 09:25:12;;;;;;;23.08;17.77;;;-0.40;99.90;;;;;;5071819;28;20031;-76
2024/01/20 09:27:38;;;;;;;26.70;17.23;;;-0.30;99.90;;;;;;5072437;28;20025;-75
2024/01/20 09:30:05;;;;;;;23.80;17.98;;;-0.30;99.90;;;;;;5071759;28;20024;-75
2024/01/20 09:32:33;;;;;;;25.55;17.48;;;-0.30;99.90;;;;;;5075929;28;20036;-76
2024/01/20 09:34:59;;;;;;;24.95;16.90;;;-0.30;99.90;;;;;;5092149;28;20024;-74
2024/01/20 09:37:25;;;;;;;22.75;17.25;;;-0.20;99.90;;;;;;5092194;28;20024;-75
2024/01/20 09:39:51;;;;;;;22.52;16.25;;;-0.20;99.90;;;;;;5091634;28;20036;-75
2024/01/20 09:42:17;;;;;;;22.98;16.30;;;-0.10;99.90;;;;;;5091835;28;20043;-75
2024/01/20 09:44:43;;;;;;;23.30;16.13;;;-0.10;99.90;;;;;;5091199;28;20024;-75
2024/01/20 09:47:12;;;;;;;22.58;16.42;;;0.00;99.90;;;;;;5091204;28;20035;-76
2024/01/20 09:49:38;;;;;;;23.02;15.18;;;0.10;99.90;;;;;;5091007;28;20132;-76
2024/01/20 09:52:27;;;;;;;21.17;14.93;;;0.10;99.90;;;;;;5091229;28;20502;-76
2024/01/20 09:55:05;;;;;;;41.95;24.30;;;0.20;99.90;;;;;;5091263;28;20131;-76
2024/01/20 09:57:32;;;;;;;47.50;27.52;;;0.20;99.90;;;;;;5091517;28;20488;-76
2024/01/20 10:00:00;;;;;;;42.22;23.52;;;0.30;99.90;;;;;;5091024;28;20028;-77
2024/01/20 10:02:28;;;;;;;34.65;21.48;;;0.40;99.90;;;;;;5090839;28;20374;-76
2024/01/20 10:04:59;;;;;;;38.17;24.35;;;0.40;99.90;;;;;;5090483;28;20020;-77
2024/01/20 10:07:29;;;;;;;34.72;21.95;;;0.50;99.90;;;;;;5089581;28;20111;-75
2024/01/20 10:09:55;;;;;;;28.15;18.70;;;0.50;99.90;;;;;;5090481;28;20077;-77
2024/01/20 10:12:23;;;;;;;27.55;17.05;;;0.60;99.90;;;;;;5090559;28;20036;-77
2024/01/20 10:14:49;;;;;;;21.77;15.38;;;0.60;99.90;;;;;;5090951;28;20018;-75
2024/01/20 10:17:15;;;;;;;19.48;14.27;;;0.70;99.90;;;;;;5089649;28;20050;-76
2024/01/20 10:19:40;;;;;;;23.90;14.57;;;0.70;99.90;;;;;;5090147;28;20028;-75
2024/01/20 10:22:10;;;;;;;19.10;13.93;;;0.80;99.90;;;;;;5090932;28;20044;-75
2024/01/20 10:24:46;;;;;;;24.77;16.55;;;0.90;99.90;;;;;;5090855;28;20024;-74
2024/01/20 10:27:25;;;;;;;25.67;16.58;;;1.00;99.90;;;;;;5090760;28;20064;-75
2024/01/20 10:29:51;;;;;;;23.48;15.10;;;1.00;99.90;;;;;;5091083;28;20081;-74
2024/01/20 10:32:17;;;;;;;23.52;14.93;;;1.10;99.90;;;;;;5090276;28;20036;-75
2024/01/20 10:34:43;;;;;;;24.75;17.35;;;1.10;99.90;;;;;;5091140;28;20032;-74
2024/01/20 10:37:13;;;;;;;27.83;17.95;;;1.20;99.90;;;;;;5090693;28;20028;-74
2024/01/20 10:39:44;;;;;;;25.30;16.63;;;1.30;99.90;;;;;;5090412;28;20520;-74
2024/01/20 10:42:14;;;;;;;20.52;14.63;;;1.30;99.90;;;;;;5091085;28;20028;-74
2024/01/20 10:44:55;;;;;;;16.75;12.70;;;1.40;99.90;;;;;;5090574;28;20020;-74
2024/01/20 10:47:34;;;;;;;16.67;12.45;;;1.50;99.90;;;;;;5090275;28;20043;-74
2024/01/20 10:50:04;;;;;;;16.92;11.73;;;1.60;99.90;;;;;;5090442;28;20466;-73
2024/01/20 10:52:32;;;;;;;15.25;11.65;;;1.60;99.90;;;;;;5094212;28;20036;-73
2024/01/20 10:54:59;;;;;;;16.70;11.85;;;1.60;99.90;;;;;;5098853;28;20051;-74
2024/01/20 10:57:26;;;;;;;17.52;11.32;;;1.70;99.90;;;;;;5114661;28;20028;-74
2024/01/20 10:59:54;;;;;;;16.17;11.68;;;1.80;99.90;;;;;;5114487;28;20020;-74
2024/01/20 11:02:22;;;;;;;15.15;10.95;;;1.90;99.90;;;;;;5101019;28;20039;-74
2024/01/20 11:04:48;;;;;;;14.60;10.98;;;1.90;99.90;;;;;;5094097;28;20035;-74
2024/01/20 11:07:23;;;;;;;12.38;9.85;;;2.00;99.90;;;;;;5094054;28;20077;-74
2024/01/20 11:09:59;;;;;;;13.50;10.02;;;2.00;99.90;;;;;;5093946;28;20028;-74
2024/01/20 11:12:26;;;;;;;13.30;9.55;;;2.10;99.90;;;;;;5094080;28;20031;-74
2024/01/20 11:14:57;;;;;;;13.70;9.23;;;2.10;99.90;;;;;;5093215;28;20050;-74
2024/01/20 11:17:23;;;;;;;11.32;8.85;;;2.20;99.90;;;;;;5094322;28;20097;-74
2024/01/20 11:19:53;;;;;;;11.82;9.55;;;2.20;99.90;;;;;;5093856;28;20099;-73
2024/01/20 11:22:38;;;;;;;13.73;8.65;;;2.30;99.90;;;;;;5093856;28;20020;-73
2024/01/20 11:25:08;;;;;;;10.50;8.30;;;2.40;99.90;;;;;;5092129;28;20028;-73
2024/01/20 11:27:46;;;;;;;10.48;8.85;;;2.40;99.90;;;;;;5093543;28;20027;-73
2024/01/20 11:30:12;;;;;;;9.70;8.35;;;2.40;99.90;;;;;;5093330;28;20020;-74
2024/01/20 11:32:38;;;;;;;11.27;8.40;;;2.50;99.90;;;;;;5093792;28;20560;-73
2024/01/20 11:35:06;;;;;;;10.77;8.75;;;2.50;99.90;;;;;;5093562;28;20020;-73
2024/01/20 11:37:33;;;;;;;9.68;8.57;;;2.60;99.90;;;;;;5093383;28;20102;-73
2024/01/20 11:40:05;;;;;;;12.73;9.00;;;2.80;99.90;;;;;;5093822;28;20040;-73
2024/01/20 11:42:33;;;;;;;13.27;9.00;;;3.00;99.90;;;;;;5093394;28;20111;-74
2024/01/20 11:45:00;;;;;;;10.18;8.05;;;3.10;99.90;;;;;;5093133;28;20032;-73
2024/01/20 11:47:26;;;;;;;10.18;7.70;;;3.40;99.90;;;;;;5093203;28;20028;-74
2024/01/20 11:49:54;;;;;;;10.38;7.93;;;3.50;99.90;;;;;;5093738;28;20028;-72
2024/01/20 11:52:20;;;;;;;10.23;8.10;;;3.60;99.90;;;;;;5093056;28;20119;-74
2024/01/20 11:54:46;;;;;;;11.00;7.90;;;3.70;99.90;;;;;;5093310;28;20653;-73
2024/01/20 11:57:30;;;;;;;10.40;7.70;;;3.70;99.90;;;;;;5093258;28;20508;-73
2024/01/20 11:59:59;;;;;;;11.93;8.27;;;3.60;99.90;;;;;;5092732;28;20409;-73
2024/01/20 12:02:27;;;;;;;11.10;8.50;;;3.60;99.90;;;;;;5092653;28;20035;-72
2024/01/20 12:04:54;;;;;;;11.52;8.55;;;3.60;99.90;;;;;;5092917;28;20039;-72
2024/01/20 12:07:20;;;;;;;11.50;8.70;;;3.60;99.90;;;;;;5092945;28;20025;-72
2024/01/20 12:09:49;;;;;;;11.15;8.23;;;3.70;99.90;;;;;;5093275;28;20034;-72
2024/01/20 12:12:15;;;;;;;10.65;8.02;;;3.70;99.90;;;;;;5092658;28;20703;-72
2024/01/20 12:14:45;;;;;;;11.52;8.13;;;3.70;99.90;;;;;;5092323;28;20074;-71
2024/01/20 12:17:12;;;;;;;10.35;7.97;;;3.70;99.90;;;;;;5092737;28;20401;-72
2024/01/20 12:19:39;;;;;;;8.77;7.28;;;3.80;99.90;;;;;;5093108;28;20137;-71
2024/01/20 12:22:10;;;;;;;13.57;8.07;;;3.80;99.90;;;;;;5092692;28;20434;-71
2024/01/20 12:24:37;;;;;;;10.30;7.80;;;3.80;99.90;;;;;;5092523;28;20027;-70
2024/01/20 12:27:04;;;;;;;10.07;7.00;;;3.90;99.90;;;;;;5092598;28;20044;-71
2024/01/20 12:29:30;;;;;;;8.93;6.60;;;3.90;99.90;;;;;;5092124;28;20465;-71
2024/01/20 12:31:59;;;;;;;6.93;5.93;;;4.00;99.90;;;;;;5091857;28;20403;-71